createdAt,value
2018-05-13T00:00:03.653Z,72.91
2018-05-13T00:02:29.420Z,73.32
2018-05-13T00:04:55.209Z,73.39
2018-05-13T00:07:20.946Z,73.42
2018-05-13T00:09:46.728Z,73.48
2018-05-13T00:12:12.499Z,73.61
2018-05-13T00:14:38.261Z,73.57
2018-05-13T00:17:04.024Z,73.49
2018-05-13T00:19:29.814Z,73.52
2018-05-13T00:21:55.788Z,73.67
2018-05-13T00:24:21.555Z,73.67
2018-05-13T00:26:47.437Z,73.91
2018-05-13T00:29:13.166Z,73.84
2018-05-13T00:31:38.934Z,73.70
2018-05-13T00:34:04.714Z,73.85
2018-05-13T00:36:30.462Z,73.86
2018-05-13T00:38:56.479Z,74.00
2018-05-13T00:41:22.272Z,74.15
2018-05-13T00:43:48.084Z,74.59
2018-05-13T00:46:13.834Z,74.52
2018-05-13T00:48:39.636Z,74.56
2018-05-13T00:51:05.370Z,74.59
2018-05-13T00:53:31.107Z,74.77
2018-05-13T00:55:56.971Z,74.91
2018-05-13T00:58:22.931Z,74.83
2018-05-13T01:00:48.723Z,74.60
2018-05-13T01:03:14.491Z,74.41
2018-05-13T01:05:40.259Z,74.23
2018-05-13T01:08:06.031Z,74.29
2018-05-13T01:10:31.842Z,74.16
2018-05-13T01:12:57.605Z,74.09
2018-05-13T01:15:23.354Z,74.01
2018-05-13T01:17:49.156Z,73.94
2018-05-13T01:20:14.897Z,73.87
2018-05-13T01:22:40.651Z,74.02
2018-05-13T01:25:06.440Z,74.01
2018-05-13T01:27:32.206Z,74.35
2018-05-13T01:29:57.963Z,74.44
2018-05-13T01:32:23.724Z,74.69
2018-05-13T01:34:49.499Z,74.67
2018-05-13T01:37:15.239Z,75.04
2018-05-13T01:39:40.994Z,75.07
2018-05-13T01:42:06.756Z,74.99
2018-05-13T01:44:32.534Z,74.93
2018-05-13T01:46:58.356Z,74.93
2018-05-13T01:49:24.124Z,75.14
2018-05-13T01:51:50.025Z,75.44
2018-05-13T01:54:15.795Z,75.42
2018-05-13T01:56:41.551Z,75.64
2018-05-13T01:59:07.307Z,75.79
2018-05-13T02:01:33.076Z,76.03
2018-05-13T02:03:58.824Z,76.05
2018-05-13T02:06:24.559Z,76.17
2018-05-13T02:08:50.289Z,76.10
2018-05-13T02:11:16.035Z,76.22
2018-05-13T02:13:48.811Z,76.18
2018-05-13T02:16:14.587Z,76.33
2018-05-13T02:18:40.363Z,76.30
2018-05-13T02:21:06.163Z,76.22
2018-05-13T02:23:31.911Z,76.27
2018-05-13T02:25:57.882Z,75.96
2018-05-13T02:28:23.703Z,75.94
2018-05-13T02:30:49.597Z,75.96
2018-05-13T02:33:15.361Z,75.75
2018-05-13T02:35:41.124Z,75.79
2018-05-13T02:38:06.867Z,75.78
2018-05-13T02:40:32.646Z,75.61
2018-05-13T02:42:58.630Z,75.58
2018-05-13T02:45:24.444Z,75.55
2018-05-13T02:47:50.208Z,75.51
2018-05-13T02:50:15.964Z,75.68
2018-05-13T02:52:41.737Z,75.74
2018-05-13T02:55:07.524Z,76.04
2018-05-13T02:57:33.293Z,76.18
2018-05-13T02:59:59.057Z,76.20
2018-05-13T03:02:25.019Z,76.60
2018-05-13T03:04:50.811Z,76.69
2018-05-13T03:07:16.579Z,76.85
2018-05-13T03:09:42.329Z,76.85
2018-05-13T03:12:08.105Z,76.97
2018-05-13T03:14:33.918Z,76.96
2018-05-13T03:16:59.667Z,77.04
2018-05-13T03:19:25.539Z,77.11
2018-05-13T03:21:51.291Z,77.12
2018-05-13T03:24:17.046Z,77.23
2018-05-13T03:26:42.816Z,77.17
2018-05-13T03:29:08.588Z,77.02
2018-05-13T03:31:34.339Z,76.92
2018-05-13T03:34:00.075Z,76.83
2018-05-13T03:36:25.864Z,76.90
2018-05-13T03:38:51.616Z,76.98
2018-05-13T03:41:17.353Z,76.85
2018-05-13T03:43:43.111Z,76.87
2018-05-13T03:46:08.863Z,76.92
2018-05-13T03:48:34.627Z,77.04
2018-05-13T03:51:00.389Z,76.94
2018-05-13T03:53:26.158Z,76.83
2018-05-13T03:55:51.978Z,76.80
2018-05-13T03:58:17.730Z,76.89
2018-05-13T04:00:43.491Z,76.83
2018-05-13T04:03:09.269Z,76.81
2018-05-13T04:05:35.016Z,76.95
2018-05-13T04:11:24.951Z,77.03
2018-05-13T04:14:03.164Z,77.01
2018-05-13T04:16:28.920Z,76.95
2018-05-13T04:18:54.732Z,76.84
2018-05-13T04:21:20.511Z,76.69
2018-05-13T04:23:46.276Z,76.59
2018-05-13T04:26:12.051Z,76.70
2018-05-13T04:28:37.829Z,76.62
2018-05-13T04:31:03.660Z,76.47
2018-05-13T04:33:29.419Z,76.45
2018-05-13T04:35:55.179Z,76.39
2018-05-13T04:38:21.024Z,76.35
2018-05-13T04:40:46.804Z,76.32
2018-05-13T04:43:12.572Z,76.17
2018-05-13T04:45:38.363Z,76.18
2018-05-13T04:48:04.165Z,76.11
2018-05-13T04:50:29.936Z,76.30
2018-05-13T04:52:55.779Z,76.16
2018-05-13T04:55:21.560Z,76.20
2018-05-13T04:57:47.374Z,76.00
2018-05-13T05:00:13.155Z,75.92
2018-05-13T05:02:38.928Z,75.86
2018-05-13T05:05:04.706Z,75.66
2018-05-13T05:07:30.498Z,75.52
2018-05-13T05:09:56.290Z,75.69
2018-05-13T05:12:22.048Z,75.59
2018-05-13T05:14:47.835Z,75.51
2018-05-13T05:17:13.607Z,75.62
2018-05-13T05:19:39.381Z,75.59
2018-05-13T05:22:05.138Z,75.42
2018-05-13T05:24:30.915Z,75.40
2018-05-13T05:29:28.526Z,75.38
2018-05-13T05:31:54.275Z,75.28
2018-05-13T05:34:20.028Z,75.15
2018-05-13T05:36:45.801Z,74.98
2018-05-13T05:39:11.559Z,75.10
2018-05-13T05:41:37.319Z,74.95
2018-05-13T05:44:03.063Z,74.98
2018-05-13T05:46:28.823Z,74.62
2018-05-13T05:48:54.587Z,74.69
2018-05-13T05:51:20.388Z,74.49
2018-05-13T05:53:46.135Z,74.44
2018-05-13T05:56:11.903Z,74.22
2018-05-13T05:58:37.652Z,73.97
2018-05-13T06:01:03.403Z,73.90
2018-05-13T06:03:29.182Z,73.67
2018-05-13T06:05:54.981Z,73.62
2018-05-13T06:08:20.730Z,73.64
2018-05-13T06:10:46.504Z,73.48
2018-05-13T06:13:12.260Z,73.46
2018-05-13T06:15:38.012Z,73.45
2018-05-13T06:18:03.773Z,73.55
2018-05-13T06:20:29.547Z,73.40
2018-05-13T06:22:55.332Z,73.31
2018-05-13T06:25:21.235Z,73.20
2018-05-13T06:27:46.932Z,72.88
2018-05-13T06:30:12.706Z,72.78
2018-05-13T06:32:38.605Z,72.72
2018-05-13T06:35:04.363Z,72.54
2018-05-13T06:37:30.130Z,72.39
2018-05-13T06:39:55.885Z,72.27
2018-05-13T06:42:21.621Z,71.99
2018-05-13T06:44:47.378Z,71.76
2018-05-13T06:47:13.136Z,71.50
2018-05-13T06:49:38.924Z,71.49
2018-05-13T06:52:04.662Z,71.27
2018-05-13T06:54:30.436Z,70.94
2018-05-13T06:56:56.594Z,70.53
2018-05-13T06:59:22.369Z,70.40
2018-05-13T07:01:48.127Z,69.90
2018-05-13T07:04:13.892Z,70.01
2018-05-13T07:06:39.631Z,69.80
2018-05-13T07:09:05.387Z,69.90
2018-05-13T07:11:31.164Z,69.33
2018-05-13T07:13:56.944Z,69.86
2018-05-13T07:16:22.705Z,69.72
2018-05-13T07:18:48.517Z,69.45
2018-05-13T07:21:14.291Z,69.35
2018-05-13T07:23:40.032Z,69.26
2018-05-13T07:26:05.794Z,69.50
2018-05-13T07:28:31.531Z,69.39
2018-05-13T07:30:57.287Z,69.14
2018-05-13T07:33:23.041Z,68.79
2018-05-13T07:38:43.588Z,68.16
2018-05-13T07:41:09.372Z,68.22
2018-05-13T07:43:35.241Z,67.91
2018-05-13T07:46:00.999Z,67.96
2018-05-13T07:48:26.859Z,67.37
2018-05-13T07:50:52.715Z,67.57
2018-05-13T07:53:18.401Z,67.47
2018-05-13T07:55:44.163Z,67.51
2018-05-13T07:58:09.927Z,67.62
2018-05-13T08:00:35.723Z,67.48
2018-05-13T08:03:01.489Z,67.19
2018-05-13T08:05:27.248Z,67.12
2018-05-13T08:07:53.003Z,67.15
2018-05-13T08:10:18.896Z,66.90
2018-05-13T08:12:44.644Z,65.98
2018-05-13T08:15:10.418Z,65.57
2018-05-13T08:17:36.168Z,65.57
2018-05-13T08:20:01.915Z,65.52
2018-05-13T08:22:27.723Z,65.01
2018-05-13T08:24:53.561Z,65.26
2018-05-13T08:27:19.721Z,65.20
2018-05-13T08:29:45.495Z,65.36
2018-05-13T08:32:11.303Z,64.64
2018-05-13T08:34:37.049Z,64.20
2018-05-13T08:37:02.855Z,64.10
2018-05-13T08:39:28.591Z,63.52
2018-05-13T08:41:54.423Z,63.43
2018-05-13T08:44:20.128Z,63.01
2018-05-13T08:46:45.903Z,63.13
2018-05-13T08:49:11.650Z,63.28
2018-05-13T08:51:37.439Z,63.23
2018-05-13T08:54:03.208Z,63.20
2018-05-13T08:56:28.982Z,63.50
2018-05-13T08:58:54.736Z,63.27
2018-05-13T09:01:20.539Z,62.43
2018-05-13T09:03:46.308Z,61.35
2018-05-13T09:06:12.132Z,61.73
2018-05-13T09:08:37.900Z,61.94
2018-05-13T09:11:03.663Z,61.29
2018-05-13T09:13:29.440Z,61.61
2018-05-13T09:15:55.229Z,61.54
2018-05-13T09:18:21.084Z,60.26
2018-05-13T09:20:46.847Z,59.97
2018-05-13T09:23:12.615Z,60.05
2018-05-13T09:25:38.374Z,60.65
2018-05-13T09:28:04.160Z,60.74
2018-05-13T09:30:29.921Z,60.20
2018-05-13T09:32:55.737Z,59.17
2018-05-13T09:35:21.476Z,59.34
2018-05-13T09:37:47.273Z,58.88
2018-05-13T09:40:13.007Z,57.54
2018-05-13T09:42:38.759Z,58.37
2018-05-13T09:45:04.519Z,57.59
2018-05-13T09:47:30.271Z,58.04
2018-05-13T09:49:56.081Z,57.74
2018-05-13T09:52:21.823Z,57.58
2018-05-13T09:54:47.598Z,57.46
2018-05-13T09:57:13.404Z,57.30
2018-05-13T09:59:39.156Z,56.84
2018-05-13T10:02:04.891Z,56.92
2018-05-13T10:04:30.646Z,55.61
2018-05-13T10:07:03.392Z,55.98
2018-05-13T10:09:29.178Z,55.46
2018-05-13T10:11:54.911Z,56.04
2018-05-13T10:14:20.676Z,56.01
2018-05-13T10:16:46.449Z,54.93
2018-05-13T10:19:12.204Z,55.72
2018-05-13T10:21:37.970Z,54.95
2018-05-13T10:24:03.791Z,54.44
2018-05-13T10:26:29.536Z,54.42
2018-05-13T10:28:55.381Z,54.59
2018-05-13T10:31:21.160Z,54.54
2018-05-13T10:33:46.925Z,54.49
2018-05-13T10:36:12.692Z,53.49
2018-05-13T10:38:38.462Z,52.63
2018-05-13T10:41:04.223Z,52.50
2018-05-13T10:43:29.984Z,51.96
2018-05-13T10:45:55.767Z,52.04
2018-05-13T10:48:21.552Z,51.98
2018-05-13T10:50:47.310Z,51.40
2018-05-13T10:53:13.092Z,50.69
2018-05-13T10:55:38.842Z,50.26
2018-05-13T10:58:04.605Z,50.60
2018-05-13T11:00:30.383Z,50.75
2018-05-13T11:02:56.240Z,50.43
2018-05-13T11:05:22.121Z,50.27
2018-05-13T11:07:47.855Z,50.52
2018-05-13T11:10:13.609Z,50.57
2018-05-13T11:12:39.386Z,50.63
2018-05-13T11:15:05.161Z,50.23
2018-05-13T11:17:30.919Z,50.46
2018-05-13T11:19:56.731Z,49.92
2018-05-13T11:22:22.503Z,48.97
2018-05-13T11:24:48.286Z,49.85
2018-05-13T11:27:14.083Z,50.17
2018-05-13T11:29:39.856Z,49.68
2018-05-13T11:32:05.652Z,49.72
2018-05-13T11:34:31.436Z,49.27
2018-05-13T11:36:57.219Z,49.15
2018-05-13T11:39:22.975Z,48.84
2018-05-13T11:41:48.788Z,48.88
2018-05-13T11:44:14.545Z,48.33
2018-05-13T11:46:40.356Z,48.04
2018-05-13T11:49:06.056Z,47.69
2018-05-13T11:51:31.799Z,48.16
2018-05-13T11:53:57.550Z,48.39
2018-05-13T11:56:23.334Z,48.13
2018-05-13T11:58:49.088Z,47.76
2018-05-13T12:01:21.947Z,47.13
2018-05-13T12:03:47.709Z,47.02
2018-05-13T12:06:13.511Z,46.09
2018-05-13T12:08:39.277Z,46.24
2018-05-13T12:11:05.052Z,45.34
2018-05-13T12:13:30.816Z,45.09
2018-05-13T12:15:56.580Z,44.38
2018-05-13T12:18:22.374Z,43.87
2018-05-13T12:20:48.123Z,43.74
2018-05-13T12:23:13.879Z,42.03
2018-05-13T12:25:54.599Z,42.54
2018-05-13T12:28:20.550Z,42.13
2018-05-13T12:30:46.307Z,42.05
2018-05-13T12:33:12.052Z,41.49
2018-05-13T12:35:37.816Z,41.99
2018-05-13T12:38:03.663Z,41.17
2018-05-13T12:40:29.347Z,40.88
2018-05-13T12:42:55.191Z,41.32
2018-05-13T12:45:20.935Z,40.76
2018-05-13T12:47:46.689Z,41.19
2018-05-13T12:50:12.535Z,40.98
2018-05-13T12:52:38.234Z,40.39
2018-05-13T12:55:04.000Z,40.83
2018-05-13T12:57:29.775Z,40.69
2018-05-13T12:59:55.522Z,40.50
2018-05-13T13:02:21.410Z,40.33
2018-05-13T13:04:47.145Z,41.12
2018-05-13T13:07:12.899Z,40.65
2018-05-13T13:09:38.666Z,40.67
2018-05-13T13:12:04.431Z,40.96
2018-05-13T13:14:30.206Z,41.20
2018-05-13T13:16:56.019Z,41.21
2018-05-13T13:19:21.826Z,41.89
2018-05-13T13:21:47.568Z,41.83
2018-05-13T13:24:13.391Z,42.36
2018-05-13T13:26:39.157Z,42.20
2018-05-13T13:29:04.913Z,41.99
2018-05-13T13:31:30.687Z,41.00
2018-05-13T13:33:56.451Z,39.89
2018-05-13T13:36:22.238Z,40.03
2018-05-13T13:38:48.020Z,39.86
2018-05-13T13:41:13.802Z,39.60
2018-05-13T13:43:39.601Z,39.15
2018-05-13T13:46:05.359Z,39.46
2018-05-13T13:48:31.091Z,39.26
2018-05-13T13:50:56.863Z,39.86
2018-05-13T13:53:22.809Z,40.91
2018-05-13T13:55:48.552Z,41.55
2018-05-13T13:58:14.306Z,41.37
2018-05-13T14:00:40.084Z,41.08
2018-05-13T14:03:05.859Z,40.02
2018-05-13T14:05:31.620Z,39.56
2018-05-13T14:07:57.410Z,39.70
2018-05-13T14:10:23.159Z,40.46
2018-05-13T14:12:48.982Z,40.57
2018-05-13T14:15:14.749Z,40.61
2018-05-13T14:17:40.515Z,40.71
2018-05-13T14:20:06.410Z,41.34
2018-05-13T14:22:32.067Z,41.41
2018-05-13T14:24:57.815Z,40.57
2018-05-13T14:27:23.607Z,40.01
2018-05-13T14:29:49.481Z,39.65
2018-05-13T14:32:15.236Z,40.17
2018-05-13T14:34:40.984Z,40.25
2018-05-13T14:37:06.743Z,39.49
2018-05-13T14:39:32.499Z,39.08
2018-05-13T14:41:58.238Z,38.89
2018-05-13T14:44:23.996Z,38.85
2018-05-13T14:46:49.827Z,39.59
2018-05-13T14:49:15.567Z,38.91
2018-05-13T14:51:41.346Z,38.90
2018-05-13T14:54:07.121Z,38.41
2018-05-13T14:56:32.887Z,38.03
2018-05-13T14:58:58.675Z,38.05
2018-05-13T15:01:24.443Z,37.89
2018-05-13T15:03:50.288Z,38.07
2018-05-13T15:06:16.052Z,38.23
2018-05-13T15:08:41.800Z,38.23
2018-05-13T15:11:07.539Z,38.25
2018-05-13T15:13:33.300Z,38.64
2018-05-13T15:15:59.060Z,38.73
2018-05-13T15:18:24.820Z,38.48
2018-05-13T15:20:50.583Z,38.20
2018-05-13T15:23:16.372Z,38.29
2018-05-13T15:25:42.123Z,37.86
2018-05-13T15:28:07.898Z,38.25
2018-05-13T15:30:33.655Z,37.67
2018-05-13T15:32:59.434Z,38.44
2018-05-13T15:35:25.196Z,36.80
2018-05-13T15:37:50.955Z,36.81
2018-05-13T15:40:16.727Z,36.97
2018-05-13T15:42:42.632Z,37.17
2018-05-13T15:45:08.263Z,37.11
2018-05-13T15:47:34.011Z,36.37
2018-05-13T15:49:59.775Z,36.63
2018-05-13T15:52:25.607Z,36.62
2018-05-13T15:54:51.422Z,36.66
2018-05-13T15:57:17.116Z,36.11
2018-05-13T15:59:42.872Z,35.83
2018-05-13T16:02:08.638Z,35.62
2018-05-13T16:04:34.407Z,34.99
2018-05-13T16:07:00.182Z,35.00
2018-05-13T16:09:25.955Z,35.14
2018-05-13T16:11:51.737Z,35.34
2018-05-13T16:14:17.495Z,34.89
2018-05-13T16:16:43.254Z,35.04
2018-05-13T16:19:09.132Z,35.14
2018-05-13T16:21:34.802Z,35.65
2018-05-13T16:24:00.535Z,35.72
2018-05-13T16:26:26.311Z,35.49
2018-05-13T16:28:52.182Z,35.40
2018-05-13T16:31:17.987Z,35.45
2018-05-13T16:33:43.789Z,35.47
2018-05-13T16:36:09.527Z,35.14
2018-05-13T16:38:35.328Z,35.19
2018-05-13T16:41:01.084Z,35.42
2018-05-13T16:43:26.831Z,35.13
2018-05-13T16:45:52.589Z,35.03
2018-05-13T16:48:18.371Z,34.83
2018-05-13T16:50:44.134Z,34.71
2018-05-13T16:53:09.901Z,34.25
2018-05-13T16:55:35.655Z,34.49
2018-05-13T16:58:01.411Z,34.16
2018-05-13T17:00:27.182Z,34.02
2018-05-13T17:02:52.963Z,33.96
2018-05-13T17:05:18.718Z,34.19
2018-05-13T17:07:44.471Z,34.01
2018-05-13T17:10:10.227Z,34.44
2018-05-13T17:12:35.983Z,34.32
2018-05-13T17:15:01.760Z,34.58
2018-05-13T17:17:27.520Z,34.41
2018-05-13T17:19:53.266Z,34.22
2018-05-13T17:22:19.035Z,33.18
2018-05-13T17:24:44.773Z,33.43
2018-05-13T17:27:10.528Z,33.32
2018-05-13T17:29:36.332Z,33.41
2018-05-13T17:32:02.098Z,33.53
2018-05-13T17:34:27.905Z,33.11
2018-05-13T17:36:53.815Z,33.31
2018-05-13T17:39:19.829Z,33.06
2018-05-13T17:41:45.523Z,33.37
2018-05-13T17:44:11.316Z,33.19
2018-05-13T17:46:37.064Z,33.10
2018-05-13T17:49:02.963Z,33.18
2018-05-13T17:51:28.838Z,33.27
2018-05-13T17:53:54.608Z,32.88
2018-05-13T17:56:23.488Z,32.95
2018-05-13T17:58:49.309Z,32.27
2018-05-13T18:01:15.083Z,32.43
2018-05-13T18:03:40.880Z,32.15
2018-05-13T18:06:06.664Z,32.27
2018-05-13T18:08:32.870Z,32.16
2018-05-13T18:10:58.639Z,32.13
2018-05-13T18:13:24.416Z,32.53
2018-05-13T18:15:50.620Z,32.74
2018-05-13T18:18:16.456Z,32.97
2018-05-13T18:20:42.204Z,33.18
2018-05-13T18:23:07.951Z,33.21
2018-05-13T18:25:33.724Z,33.34
2018-05-13T18:27:59.499Z,33.60
2018-05-13T18:30:25.294Z,33.63
2018-05-13T18:32:51.072Z,33.78
2018-05-13T18:35:16.824Z,33.79
2018-05-13T18:37:42.563Z,34.28
2018-05-13T18:40:08.326Z,34.35
2018-05-13T18:42:34.128Z,34.50
2018-05-13T18:44:59.999Z,34.63
2018-05-13T18:47:25.775Z,35.06
2018-05-13T18:49:51.531Z,35.19
2018-05-13T18:52:17.331Z,35.21
2018-05-13T18:54:43.076Z,35.40
2018-05-13T18:57:08.848Z,35.63
2018-05-13T18:59:34.628Z,35.76
2018-05-13T19:07:45.195Z,36.76
2018-05-13T19:10:10.977Z,37.60
2018-05-13T19:18:21.367Z,39.72
2018-05-13T19:20:47.144Z,40.27
2018-05-13T19:23:13.032Z,40.53
2018-05-13T19:25:38.808Z,40.81
2018-05-13T19:28:04.616Z,41.15
2018-05-13T19:30:30.420Z,41.25
2018-05-13T19:32:56.223Z,41.52
2018-05-13T19:35:22.015Z,41.77
2018-05-13T19:37:47.767Z,41.89
2018-05-13T19:40:13.580Z,42.12
2018-05-13T19:42:39.372Z,42.36
2018-05-13T19:45:05.191Z,42.40
2018-05-13T19:47:31.040Z,42.67
2018-05-13T19:49:56.863Z,42.90
2018-05-13T19:52:22.650Z,43.01
2018-05-13T19:54:48.394Z,43.30
2018-05-13T19:57:14.147Z,43.39
2018-05-13T19:59:39.920Z,43.48
2018-05-13T20:02:05.671Z,43.66
2018-05-13T20:04:31.458Z,43.78
2018-05-13T20:06:57.219Z,43.75
2018-05-13T20:09:22.994Z,43.86
2018-05-13T20:11:48.760Z,44.00
2018-05-13T20:14:14.540Z,44.14
2018-05-13T20:16:40.280Z,44.12
2018-05-13T20:19:06.049Z,44.18
2018-05-13T20:21:31.851Z,44.21
2018-05-13T20:23:57.668Z,44.34
2018-05-13T20:26:23.430Z,44.22
2018-05-13T20:28:49.244Z,44.31
2018-05-13T20:31:15.008Z,44.36
2018-05-13T20:33:40.812Z,44.32
2018-05-13T20:36:06.648Z,44.33
2018-05-13T20:38:32.447Z,44.56
2018-05-13T20:40:58.254Z,44.67
2018-05-13T20:43:24.123Z,44.82
2018-05-13T20:45:49.872Z,45.10
2018-05-13T20:48:15.691Z,45.45
2018-05-13T20:50:41.467Z,45.81
2018-05-13T20:53:07.220Z,46.01
2018-05-13T20:55:32.976Z,46.21
2018-05-13T20:57:58.752Z,46.50
2018-05-13T21:00:24.676Z,46.70
2018-05-13T21:02:50.483Z,46.94
2018-05-13T21:05:16.320Z,47.27
2018-05-13T21:07:42.015Z,47.58
2018-05-13T21:10:07.771Z,47.80
2018-05-13T21:12:33.528Z,47.99
2018-05-13T21:14:59.365Z,48.20
2018-05-13T21:17:25.404Z,48.62
2018-05-13T21:19:51.179Z,48.77
2018-05-13T21:22:16.935Z,48.97
2018-05-13T21:24:42.718Z,49.29
2018-05-13T21:27:08.463Z,49.54
2018-05-13T21:29:34.279Z,49.82
2018-05-13T21:32:00.044Z,49.98
2018-05-13T21:34:25.779Z,50.32
2018-05-13T21:36:51.566Z,50.45
2018-05-13T21:39:17.307Z,50.67
2018-05-13T21:41:43.051Z,50.83
2018-05-13T21:44:08.862Z,51.03
2018-05-13T21:46:34.603Z,51.21
2018-05-13T21:49:00.384Z,51.32
2018-05-13T21:51:26.156Z,51.47
2018-05-13T21:53:51.916Z,51.71
2018-05-13T21:56:17.707Z,51.88
2018-05-13T21:58:43.460Z,52.42
2018-05-13T22:01:09.230Z,52.65
2018-05-13T22:03:35.035Z,52.56
2018-05-13T22:06:00.791Z,52.68
2018-05-13T22:08:26.552Z,52.62
2018-05-13T22:10:52.524Z,52.82
2018-05-13T22:13:18.273Z,52.87
2018-05-13T22:15:44.088Z,52.97
2018-05-13T22:18:09.864Z,53.14
2018-05-13T22:20:35.609Z,53.26
2018-05-13T22:23:01.361Z,53.42
2018-05-13T22:25:27.133Z,53.51
2018-05-13T22:27:52.891Z,53.62
2018-05-13T22:30:18.649Z,53.65
2018-05-13T22:32:44.431Z,53.94
2018-05-13T22:35:10.175Z,54.07
2018-05-13T22:37:35.987Z,54.01
2018-05-13T22:40:01.772Z,54.16
2018-05-13T22:42:27.540Z,54.25
2018-05-13T22:44:53.487Z,54.66
2018-05-13T22:47:19.786Z,54.97
2018-05-13T22:49:45.496Z,55.03
2018-05-13T22:52:11.247Z,55.03
2018-05-13T22:54:37.012Z,55.23
2018-05-13T22:57:02.791Z,55.43
2018-05-13T22:59:28.664Z,55.44
2018-05-13T23:01:54.434Z,55.72
2018-05-13T23:04:20.280Z,55.86
2018-05-13T23:06:46.040Z,56.04
2018-05-13T23:09:11.826Z,56.06
2018-05-13T23:11:37.576Z,56.25
2018-05-13T23:14:03.316Z,56.18
2018-05-13T23:16:29.086Z,56.39
2018-05-13T23:18:54.896Z,56.34
2018-05-13T23:21:20.809Z,56.53
2018-05-13T23:23:46.568Z,56.99
2018-05-13T23:26:12.322Z,57.26
2018-05-13T23:28:38.103Z,57.44
2018-05-13T23:31:03.842Z,57.67
2018-05-13T23:33:29.603Z,58.00
2018-05-13T23:35:56.216Z,58.10
2018-05-13T23:38:21.992Z,58.25
2018-05-13T23:40:47.748Z,58.38
2018-05-13T23:43:13.520Z,58.37
2018-05-13T23:45:39.275Z,58.31
2018-05-13T23:48:05.020Z,58.43
2018-05-13T23:50:30.787Z,58.44
2018-05-13T23:52:56.542Z,58.51
2018-05-13T23:55:22.324Z,58.63
2018-05-13T23:57:48.091Z,59.02
